Time;durP1;ratioP1;P1;durP2;ratioP2;P2;SDS_P1;SDS_P2;PMS_P1;PMS_P2;Temp;Humidity;BMP_temperature;BMP_pressure;BME280_temperature;BME280_humidity;BME280_pressure;Samples;Min_cycle;Max_cycle;Signal;HPM_P1;HPM_P2
2022/10/03 00:03:44;;;;;;;17.40;4.90;;;;;;;9.94;80.07;99383.48;215859;1276;141639;-70
2022/10/03 00:08:52;;;;;;;7.50;2.90;;;;;;;9.94;80.08;99386.55;214876;1276;140949;-69
2022/10/03 00:14:14;;;;;;;2.90;1.90;;;;;;;9.95;79.88;99388.87;215379;1276;140923;-71
2022/10/03 00:19:27;;;;;;;4.80;1.80;;;;;;;9.93;80.02;99385.42;213325;1276;142038;-69
2022/10/03 00:24:46;;;;;;;4.50;1.80;;;;;;;9.91;79.95;99381.66;214391;1276;140749;-67
2022/10/03 00:30:12;;;;;;;2.60;2.20;;;;;;;9.91;79.76;99382.36;214323;1277;140600;-72
2022/10/03 00:35:19;;;;;;;4.30;2.70;;;;;;;9.89;79.64;99386.79;214109;1276;140104;-69
2022/10/03 00:40:48;;;;;;;4.20;2.70;;;;;;;9.89;80.08;99384.17;213568;1276;140688;-69
2022/10/03 00:46:09;;;;;;;5.30;1.90;;;;;;;9.86;80.12;99381.57;213041;1276;142644;-67
2022/10/03 00:51:39;;;;;;;13.10;3.60;;;;;;;9.87;80.06;99375.61;213509;1276;141703;-67
2022/10/03 00:57:04;;;;;;;4.20;1.70;;;;;;;9.88;79.85;99367.81;213214;1276;143512;-67
2022/10/03 01:02:31;;;;;;;3.40;2.00;;;;;;;9.88;79.96;99363.50;214627;1276;140404;-68
2022/10/03 01:08:08;;;;;;;3.20;1.90;;;;;;;9.87;80.05;99354.27;213236;1276;150805;-67
2022/10/03 01:13:25;;;;;;;6.10;2.10;;;;;;;9.84;79.90;99356.07;213675;1276;141057;-67
2022/10/03 01:19:12;;;;;;;5.10;1.40;;;;;;;9.83;79.99;99358.98;212994;1276;233976;-67
2022/10/03 01:24:35;;;;;;;4.30;1.50;;;;;;;9.86;80.18;99353.14;213773;1276;140842;-68
2022/10/03 01:35:22;;;;;;;3.60;1.40;;;;;;;9.94;80.47;99354.73;214993;1276;139704;-67
2022/10/03 01:40:45;;;;;;;1.70;1.20;;;;;;;9.98;80.30;99349.73;215301;1276;140492;-69
2022/10/03 01:46:14;;;;;;;3.50;1.50;;;;;;;10.00;80.41;99345.21;215692;1276;141523;-72
2022/10/03 01:51:44;;;;;;;8.20;3.20;;;;;;;10.01;80.37;99342.92;214635;1276;140544;-70
2022/10/03 01:57:02;;;;;;;2.80;2.10;;;;;;;10.03;80.54;99335.23;215776;1276;142704;-71
2022/10/03 02:02:18;;;;;;;3.80;2.60;;;;;;;10.05;80.82;99339.86;215800;1276;142210;-73
2022/10/03 02:07:50;;;;;;;4.60;2.20;;;;;;;10.09;80.89;99340.48;215075;1276;140687;-69
2022/10/03 02:13:15;;;;;;;2.20;1.80;;;;;;;10.14;80.88;99332.36;213345;1276;141274;-70
2022/10/03 02:18:46;;;;;;;6.40;3.20;;;;;;;10.18;81.14;99334.46;214794;1275;140643;-70
2022/10/03 02:24:14;;;;;;;5.80;3.30;;;;;;;10.17;81.16;99328.10;214419;1276;140343;-69
2022/10/03 02:29:17;;;;;;;;;;;;;;;10.18;81.36;99332.11;213782;1276;140325;-67
2022/10/03 02:34:29;;;;;;;2.20;2.00;;;;;;;10.20;81.57;99338.98;214694;1276;126975;-70
2022/10/03 02:39:42;;;;;;;9.70;4.50;;;;;;;10.20;81.54;99336.39;213668;1276;140764;-68
2022/10/03 02:45:26;;;;;;;6.90;3.90;;;;;;;10.19;81.71;99341.00;213640;1276;139952;-69
2022/10/03 02:51:10;;;;;;;6.70;3.40;;;;;;;10.22;81.81;99338.61;213372;1276;139862;-69
2022/10/03 02:56:51;;;;;;;7.50;2.70;;;;;;;10.28;82.11;99337.11;213326;1277;142170;-67
2022/10/03 03:02:11;;;;;;;5.20;2.50;;;;;;;10.33;81.92;99336.50;213569;1276;142556;-66
2022/10/03 03:07:22;;;;;;;5.60;2.30;;;;;;;10.40;81.96;99340.81;214250;1274;140144;-67
2022/10/03 03:12:43;;;;;;;14.70;5.30;;;;;;;10.43;81.89;99331.20;213964;1276;140993;-67
2022/10/03 03:18:03;;;;;;;3.30;2.90;;;;;;;10.44;81.94;99330.48;213827;1276;141153;-67
2022/10/03 03:23:54;;;;;;;5.90;2.80;;;;;;;10.43;82.03;99332.21;213359;1276;141982;-66
2022/10/03 03:29:27;;;;;;;4.40;2.80;;;;;;;10.42;82.15;99336.79;214972;1274;141130;-67
2022/10/03 03:34:32;;;;;;;3.70;2.10;;;;;;;10.43;82.18;99331.31;213096;1276;141216;-66
2022/10/03 03:40:09;;;;;;;3.10;2.30;;;;;;;10.39;82.27;99330.41;214559;1277;143117;-67
2022/10/03 03:45:39;;;;;;;2.90;1.80;;;;;;;10.36;82.43;99332.46;215690;1273;141248;-69
2022/10/03 03:51:04;;;;;;;3.20;2.30;;;;;;;10.34;82.36;99329.11;215935;1276;142487;-72
2022/10/03 03:56:36;;;;;;;10.50;2.80;;;;;;;10.37;82.56;99331.03;215993;1276;141955;-71
2022/10/03 04:01:52;;;;;;;3.40;2.10;;;;;;;10.41;82.51;99334.11;215629;1276;141347;-70
2022/10/03 04:07:12;;;;;;;3.10;2.10;;;;;;;10.45;82.50;99338.16;215612;1276;141266;-70
2022/10/03 04:12:48;;;;;;;2.80;1.80;;;;;;;10.43;82.47;99337.49;213058;1276;143223;-66
2022/10/03 04:23:57;;;;;;;6.80;2.30;;;;;;;10.42;82.50;99328.31;213407;1276;164571;-67
2022/10/03 04:29:41;;;;;;;7.40;2.10;;;;;;;10.39;82.62;99326.26;214195;1276;141316;-68
2022/10/03 04:35:32;;;;;;;5.40;2.90;;;;;;;10.38;82.74;99330.94;213018;1276;142806;-67
2022/10/03 04:40:59;;;;;;;5.80;2.30;;;;;;;10.36;82.80;99334.59;213686;1276;142126;-69
2022/10/03 04:46:02;;;;;;;8.80;3.20;;;;;;;10.34;82.86;99327.79;212928;1276;142626;-69
2022/10/03 04:51:23;;;;;;;8.00;2.30;;;;;;;10.29;82.83;99325.58;213453;1276;140356;-68
2022/10/03 04:56:25;;;;;;;11.00;3.70;;;;;;;10.28;83.01;99324.74;213620;1275;140585;-70
2022/10/03 05:02:00;;;;;;;6.80;3.00;;;;;;;10.28;82.99;99324.42;213951;1275;140849;-66
2022/10/03 05:07:44;;;;;;;6.20;3.10;;;;;;;10.27;83.11;99323.45;213419;1276;140710;-67
2022/10/03 05:12:54;;;;;;;10.50;3.00;;;;;;;10.29;83.00;99318.21;213834;1276;141947;-67
2022/10/03 05:18:19;;;;;;;3.50;1.90;;;;;;;10.31;82.96;99320.48;214197;1276;140831;-67
2022/10/03 05:24:02;;;;;;;3.30;2.10;;;;;;;10.34;83.04;99327.26;214716;1276;140545;-67
2022/10/03 05:29:17;;;;;;;7.50;3.00;;;;;;;10.38;82.91;99323.74;214062;1276;141856;-67
2022/10/03 05:34:41;;;;;;;1.90;1.80;;;;;;;10.40;83.04;99319.87;214112;1275;139989;-67
2022/10/03 05:40:06;;;;;;;3.60;2.00;;;;;;;10.45;83.06;99325.80;215315;1274;140887;-67
2022/10/03 05:45:31;;;;;;;4.50;1.20;;;;;;;10.50;82.88;99323.26;213278;1276;140398;-66
2022/10/03 05:50:46;;;;;;;2.90;1.40;;;;;;;10.52;82.71;99324.67;215624;1276;141345;-67
2022/10/03 05:56:07;;;;;;;5.60;1.80;;;;;;;10.56;82.64;99324.52;215621;1276;141863;-68
2022/10/03 06:01:57;;;;;;;3.50;1.90;;;;;;;10.63;82.64;99325.70;215950;1275;141118;-65
2022/10/03 06:07:28;;;;;;;2.70;1.70;;;;;;;10.67;82.40;99321.88;213900;1282;140560;-67
2022/10/03 06:12:46;;;;;;;6.90;2.50;;;;;;;10.68;82.54;99333.68;214838;1276;140451;-68
2022/10/03 06:17:59;;;;;;;9.30;2.60;;;;;;;10.73;82.29;99336.48;215082;1276;143577;-68
2022/10/03 06:23:18;;;;;;;3.40;1.30;;;;;;;10.80;82.27;99343.41;214390;1275;141922;-68
2022/10/03 06:28:30;;;;;;;5.30;2.00;;;;;;;10.87;82.00;99351.36;215223;1276;142206;-69
2022/10/03 06:33:38;;;;;;;7.20;1.70;;;;;;;10.91;81.74;99341.88;215542;1275;140727;-69
2022/10/03 06:39:15;;;;;;;4.40;2.00;;;;;;;10.88;81.89;99342.27;213634;1276;140265;-67
2022/10/03 06:44:26;;;;;;;5.30;1.80;;;;;;;10.92;81.70;99340.84;214102;1276;141404;-67
2022/10/03 06:49:47;;;;;;;4.90;2.10;;;;;;;11.00;81.74;99341.56;213688;1275;142473;-72
2022/10/03 06:55:09;;;;;;;5.50;3.20;;;;;;;11.06;81.47;99335.02;213095;1276;141657;-70
2022/10/03 07:00:20;;;;;;;1.80;1.70;;;;;;;11.08;81.44;99335.31;213775;1276;140997;-69
2022/10/03 07:05:41;;;;;;;4.80;1.70;;;;;;;11.07;81.36;99340.42;213805;1276;141065;-70
2022/10/03 07:10:58;;;;;;;9.00;2.20;;;;;;;11.10;81.32;99346.23;214461;1276;141236;-71
2022/10/03 07:16:29;;;;;;;3.30;2.00;;;;;;;11.11;81.05;99350.66;213606;1276;141336;-68
2022/10/03 07:21:46;;;;;;;3.60;1.50;;;;;;;11.06;81.05;99351.08;214223;1275;142269;-69
2022/10/03 07:27:09;;;;;;;1.50;1.30;;;;;;;11.06;80.99;99349.52;214050;1276;142949;-70
2022/10/03 07:32:29;;;;;;;7.30;1.30;;;;;;;11.01;80.98;99352.41;215260;1276;141368;-69
2022/10/03 07:44:19;;;;;;;3.60;1.50;;;;;;;10.97;81.34;99354.91;215187;1275;141076;-69
2022/10/03 07:50:21;;;;;;;7.90;2.00;;;;;;;10.94;81.37;99360.48;213507;1276;142254;-67
2022/10/03 07:55:52;;;;;;;6.70;1.50;;;;;;;10.86;81.56;99366.60;214457;1282;141284;-72
2022/10/03 08:01:13;;;;;;;3.00;1.60;;;;;;;10.80;81.61;99370.02;214815;1275;141171;-69
2022/10/03 08:06:46;;;;;;;4.20;1.90;;;;;;;10.75;82.05;99378.55;215980;1275;144637;-68
2022/10/03 08:12:17;;;;;;;4.90;1.30;;;;;;;10.85;82.17;99381.46;215421;1275;141788;-68
2022/10/03 08:17:56;;;;;;;3.30;1.70;;;;;;;11.08;82.43;99380.83;214452;1276;152913;-70
2022/10/03 08:23:26;;;;;;;6.60;2.20;;;;;;;11.14;82.04;99389.92;213743;1276;142251;-70
2022/10/03 08:28:56;;;;;;;4.50;2.60;;;;;;;11.17;82.32;99388.26;214279;1276;140622;-67
2022/10/03 08:34:15;;;;;;;3.80;2.10;;;;;;;11.41;82.46;99384.30;213634;1276;140498;-71
2022/10/03 08:39:37;;;;;;;3.70;2.10;;;;;;;11.85;82.75;99377.96;212904;1276;141342;-69
2022/10/03 08:45:25;;;;;;;4.10;1.40;;;;;;;12.18;81.83;99368.10;213522;1276;140944;-68
2022/10/03 08:51:10;;;;;;;3.40;2.30;;;;;;;12.24;81.65;99361.02;213188;1276;140947;-67
2022/10/03 08:56:45;;;;;;;2.20;2.00;;;;;;;12.29;81.48;99380.95;213466;1276;140700;-69
2022/10/03 09:02:13;;;;;;;5.00;1.90;;;;;;;12.35;80.91;99386.35;213448;1276;141032;-68
2022/10/03 09:07:36;;;;;;;3.00;2.70;;;;;;;12.29;80.89;99403.92;213023;1276;140535;-69
2022/10/03 09:12:41;;;;;;;6.70;4.10;;;;;;;12.20;81.02;99411.50;213838;1276;140912;-72
2022/10/03 09:17:56;;;;;;;4.60;2.40;;;;;;;12.09;80.65;99419.36;213503;1276;142236;-69
2022/10/03 09:23:09;;;;;;;3.20;2.30;;;;;;;12.12;80.78;99423.62;213562;1276;233926;-72
2022/10/03 09:28:39;;;;;;;2.30;2.00;;;;;;;12.22;80.29;99431.83;214313;1276;140578;-71
2022/10/03 09:34:07;;;;;;;2.50;1.70;;;;;;;12.44;80.79;99434.98;214431;1275;140162;-71
2022/10/03 09:39:11;;;;;;;2.80;1.80;;;;;;;12.69;80.34;99436.63;214545;1276;141075;-67
2022/10/03 09:44:32;;;;;;;2.10;1.90;;;;;;;13.04;80.16;99444.00;215771;1276;141527;-67
2022/10/03 09:50:12;;;;;;;1.70;1.60;;;;;;;13.44;79.33;99441.85;215773;1276;140198;-68
2022/10/03 09:56:09;;;;;;;7.40;2.00;;;;;;;13.82;78.94;99447.30;215423;1276;544777;-71
2022/10/03 10:01:12;;;;;;;;;;;;;;;13.98;78.28;99452.67;215616;1276;142231;-68
2022/10/03 10:06:33;;;;;;;3.70;2.00;;;;;;;14.34;77.92;99456.18;216439;1276;126846;-68
2022/10/03 10:12:13;;;;;;;7.70;4.30;;;;;;;14.49;76.73;99462.34;213132;1276;143284;-67
2022/10/03 10:17:41;;;;;;;3.40;2.20;;;;;;;14.34;76.14;99466.16;214925;1276;141246;-71
2022/10/03 10:23:11;;;;;;;2.60;2.40;;;;;;;14.19;75.30;99465.11;213589;1276;141269;-69
2022/10/03 10:28:51;;;;;;;3.40;3.10;;;;;;;13.87;75.01;99469.30;215133;1276;140547;-70
2022/10/03 10:34:31;;;;;;;3.90;2.90;;;;;;;13.65;74.52;99479.50;213505;1276;141594;-69
2022/10/03 10:40:12;;;;;;;2.40;2.20;;;;;;;13.61;74.23;99483.70;213886;1276;209752;-69
2022/10/03 10:46:09;;;;;;;10.40;3.90;;;;;;;13.72;74.13;99481.73;213724;1276;141432;-70
2022/10/03 10:51:14;;;;;;;3.30;3.00;;;;;;;13.80;73.56;99469.52;212925;1282;143613;-68
2022/10/03 10:56:54;;;;;;;3.40;3.20;;;;;;;13.64;73.25;99478.90;212854;1277;141341;-69
2022/10/03 11:02:22;;;;;;;5.10;2.70;;;;;;;13.53;73.26;99491.64;214078;1276;140048;-68
2022/10/03 11:07:45;;;;;;;3.10;2.80;;;;;;;13.58;73.69;99495.27;212590;1276;141856;-67
2022/10/03 11:13:30;;;;;;;5.00;3.50;;;;;;;13.63;73.76;99502.36;214307;1276;141820;-71
2022/10/03 11:19:00;;;;;;;4.50;2.70;;;;;;;13.87;74.00;99508.05;214085;1276;141154;-69
2022/10/03 11:24:33;;;;;;;3.40;2.70;;;;;;;14.18;73.70;99507.13;214997;1276;139927;-69
2022/10/03 11:30:17;;;;;;;3.90;2.90;;;;;;;14.26;73.15;99504.70;214247;1276;140112;-69
2022/10/03 11:35:49;;;;;;;3.20;2.40;;;;;;;14.25;72.72;99515.31;214554;1276;141168;-67
2022/10/03 11:41:04;;;;;;;3.10;2.50;;;;;;;14.27;72.25;99517.84;213163;1276;141547;-69
2022/10/03 11:46:46;;;;;;;3.20;2.00;;;;;;;14.23;71.62;99525.38;214961;1276;140734;-70
2022/10/03 11:51:55;;;;;;;1.80;1.70;;;;;;;14.12;70.89;99533.11;215919;1276;141132;-70
2022/10/03 11:57:06;;;;;;;2.20;1.70;;;;;;;13.93;70.23;99533.52;214821;1276;142097;-69
2022/10/03 12:02:42;;;;;;;2.90;2.40;;;;;;;13.77;70.31;99554.29;215158;1276;140170;-68
2022/10/03 12:14:25;;;;;;;7.00;3.30;;;;;;;13.80;70.68;99554.36;214817;1276;140806;-69
2022/10/03 12:19:38;;;;;;;3.80;2.80;;;;;;;14.19;70.97;99556.56;215790;1276;142013;-71
2022/10/03 12:24:47;;;;;;;2.10;2.00;;;;;;;14.27;70.49;99560.68;214055;1276;139997;-68
2022/10/03 12:30:01;;;;;;;3.30;2.70;;;;;;;14.13;70.33;99569.52;214744;1276;139474;-70
2022/10/03 12:35:18;;;;;;;2.40;2.20;;;;;;;13.98;70.14;99573.21;214009;1277;140742;-69
2022/10/03 12:40:23;;;;;;;2.20;2.10;;;;;;;14.00;70.27;99573.39;213586;1276;140620;-69
2022/10/03 12:45:57;;;;;;;2.20;1.80;;;;;;;13.97;69.95;99573.48;214302;1276;139760;-69
2022/10/03 12:51:28;;;;;;;3.50;2.20;;;;;;;14.13;69.81;99575.14;213376;1277;139888;-70
2022/10/03 12:57:01;;;;;;;2.90;2.60;;;;;;;14.42;69.51;99583.70;213085;1277;140083;-70
2022/10/03 13:02:20;;;;;;;2.40;2.20;;;;;;;14.58;69.05;99587.46;213685;1276;141114;-71
2022/10/03 13:07:42;;;;;;;3.70;3.20;;;;;;;14.72;68.41;99596.33;213146;1276;139368;-70
2022/10/03 13:13:06;;;;;;;2.80;2.50;;;;;;;14.89;68.62;99601.75;214347;1276;140268;-71
2022/10/03 13:18:18;;;;;;;2.70;2.50;;;;;;;14.96;68.48;99608.95;214165;1276;139774;-70
2022/10/03 13:23:31;;;;;;;3.00;2.60;;;;;;;15.01;68.29;99616.09;213917;1276;140074;-70
2022/10/03 13:29:00;;;;;;;5.50;3.90;;;;;;;15.00;68.17;99614.70;213909;1276;141383;-71
2022/10/03 13:34:13;;;;;;;4.50;2.80;;;;;;;14.91;68.59;99614.41;214560;1276;219700;-71
2022/10/03 13:39:54;;;;;;;3.80;3.00;;;;;;;14.84;68.79;99617.09;215114;1276;141144;-71
2022/10/03 13:45:05;;;;;;;6.00;2.80;;;;;;;14.58;69.00;99611.02;214296;1277;140029;-69
2022/10/03 13:50:26;;;;;;;7.40;4.10;;;;;;;14.40;69.29;99606.85;215325;1277;141194;-69
2022/10/03 13:55:49;;;;;;;4.30;3.90;;;;;;;14.18;69.93;99613.83;214342;1276;141141;-69
2022/10/03 14:01:13;;;;;;;4.80;4.40;;;;;;;13.96;70.48;99617.69;215551;1276;143086;-71
2022/10/03 14:06:51;;;;;;;6.80;4.80;;;;;;;13.78;71.33;99631.40;216058;1276;141622;-69
2022/10/03 14:12:22;;;;;;;7.20;4.20;;;;;;;13.62;71.92;99655.83;215532;1276;141272;-69
2022/10/03 14:17:52;;;;;;;6.10;3.50;;;;;;;13.51;72.61;99661.73;213618;1275;140766;-70
2022/10/03 14:23:07;;;;;;;3.10;2.90;;;;;;;13.31;72.41;99668.10;213705;1276;141292;-69
2022/10/03 14:28:35;;;;;;;4.00;2.80;;;;;;;13.12;72.25;99666.23;213887;1276;141359;-68
2022/10/03 14:33:54;;;;;;;4.20;2.10;;;;;;;12.93;72.25;99678.87;214285;1276;140914;-69
2022/10/03 14:39:20;;;;;;;4.40;3.90;;;;;;;12.92;72.47;99688.97;214992;1276;141340;-69
2022/10/03 14:44:44;;;;;;;4.50;4.20;;;;;;;12.98;72.40;99685.93;213924;1276;140186;-69
2022/10/03 14:49:55;;;;;;;4.40;4.10;;;;;;;13.02;72.29;99686.25;213166;1276;142499;-69
2022/10/03 14:55:09;;;;;;;5.60;3.40;;;;;;;12.93;72.47;99687.17;213445;1276;141380;-71
2022/10/03 15:00:42;;;;;;;5.90;2.80;;;;;;;12.89;72.61;99683.10;213140;1276;141214;-68
2022/10/03 15:06:34;;;;;;;4.90;3.50;;;;;;;12.81;72.78;99683.66;213506;1276;140259;-70
2022/10/03 15:11:46;;;;;;;6.50;4.00;;;;;;;12.69;72.69;99689.83;213865;1276;140480;-71
2022/10/03 15:16:55;;;;;;;4.20;3.30;;;;;;;12.58;72.93;99689.15;213892;1276;141158;-70
2022/10/03 15:22:12;;;;;;;8.00;3.90;;;;;;;12.52;72.76;99697.38;212830;1276;141112;-70
2022/10/03 15:27:21;;;;;;;3.60;3.20;;;;;;;12.40;72.81;99702.59;212837;1276;141836;-69
2022/10/03 15:32:32;;;;;;;3.30;3.00;;;;;;;12.27;73.26;99708.96;213636;1276;140879;-67
2022/10/03 15:37:42;;;;;;;4.00;3.60;;;;;;;12.17;72.85;99715.31;213350;1276;140435;-69
2022/10/03 15:43:04;;;;;;;3.30;3.00;;;;;;;12.05;73.26;99713.03;214241;1276;141091;-69
2022/10/03 15:48:15;;;;;;;3.40;3.10;;;;;;;11.90;73.08;99718.27;213801;1276;139964;-70
2022/10/03 15:53:36;;;;;;;4.10;3.80;;;;;;;11.74;73.36;99721.20;214066;1276;141192;-71
2022/10/03 15:58:49;;;;;;;2.80;2.60;;;;;;;11.62;73.32;99723.80;215853;1276;140336;-70
2022/10/03 16:03:58;;;;;;;4.80;4.40;;;;;;;11.54;73.21;99731.70;214886;1275;140833;-71
2022/10/03 16:09:26;;;;;;;4.00;3.70;;;;;;;11.51;73.48;99733.88;215648;1275;139983;-70
2022/10/03 16:15:02;;;;;;;5.20;4.30;;;;;;;11.53;73.56;99743.73;215870;1276;140618;-71
2022/10/03 16:20:26;;;;;;;3.40;3.10;;;;;;;11.53;73.55;99748.23;215791;1276;140729;-70
2022/10/03 16:25:55;;;;;;;4.70;3.70;;;;;;;11.54;73.62;99750.39;215286;1276;141763;-71
2022/10/03 16:31:04;;;;;;;9.00;7.50;;;;;;;11.46;73.88;99747.73;214327;1276;140257;-69
2022/10/03 16:36:15;;;;;;;6.50;5.00;;;;;;;11.36;73.73;99747.80;215110;1276;139780;-70
2022/10/03 16:41:27;;;;;;;8.10;5.00;;;;;;;11.27;74.13;99752.67;213954;1275;141755;-69
2022/10/03 16:46:37;;;;;;;6.80;4.20;;;;;;;11.17;74.01;99750.35;213379;1276;141270;-70
2022/10/03 16:52:05;;;;;;;5.80;3.40;;;;;;;11.06;74.25;99752.73;213709;1276;152785;-70
2022/10/03 16:57:19;;;;;;;12.50;9.40;;;;;;;10.94;74.66;99750.88;213174;1276;140597;-69
2022/10/03 17:02:29;;;;;;;8.00;4.40;;;;;;;10.85;74.72;99750.40;213508;1276;141526;-69
2022/10/03 17:07:44;;;;;;;22.90;6.10;;;;;;;10.78;74.84;99754.31;213352;1276;142456;-70
2022/10/03 17:12:51;;;;;;;15.40;12.70;;;;;;;10.73;75.16;99754.73;213097;1276;143873;-69
2022/10/03 17:18:13;;;;;;;;;;;;;;;10.66;75.20;99755.73;213898;1276;142683;-70
2022/10/03 17:23:31;;;;;;;5.40;4.10;;;;;;;10.51;75.46;99759.39;214817;1276;126656;-69
2022/10/03 17:28:57;;;;;;;5.10;4.30;;;;;;;10.41;75.89;99760.52;213153;1276;141531;-69
2022/10/03 17:34:18;;;;;;;10.40;5.80;;;;;;;10.40;76.16;99760.59;213022;1276;141280;-69
2022/10/03 17:39:47;;;;;;;9.10;5.60;;;;;;;10.42;76.23;99764.95;214978;1276;141563;-70
2022/10/03 17:45:09;;;;;;;7.10;5.70;;;;;;;10.41;76.34;99768.73;215534;1276;140712;-70
2022/10/03 17:50:21;;;;;;;8.80;6.20;;;;;;;10.44;76.62;99767.45;214605;1275;140168;-68
2022/10/03 17:55:36;;;;;;;8.20;4.90;;;;;;;10.51;76.64;99772.88;215758;1276;140770;-70
2022/10/03 18:00:45;;;;;;;15.10;7.20;;;;;;;10.58;76.74;99777.55;215602;1276;140837;-70
2022/10/03 18:05:53;;;;;;;17.30;9.80;;;;;;;10.62;76.88;99776.38;215409;1276;140936;-66
2022/10/03 18:11:01;;;;;;;23.00;13.00;;;;;;;10.62;76.71;99772.06;215428;1276;140786;-66
2022/10/03 18:16:32;;;;;;;36.20;21.80;;;;;;;10.62;76.95;99774.57;213329;1276;140243;-65
2022/10/03 18:21:38;;;;;;;6.50;4.20;;;;;;;10.62;77.03;99770.99;214858;1275;141311;-66
2022/10/03 18:26:48;;;;;;;13.40;4.40;;;;;;;10.62;77.18;99770.52;215194;1276;142337;-66
2022/10/03 18:31:58;;;;;;;4.70;3.20;;;;;;;10.62;77.04;99773.02;214271;1276;140856;-65
2022/10/03 18:37:27;;;;;;;9.20;8.20;;;;;;;10.60;77.31;99771.28;214456;1275;139843;-65
2022/10/03 18:42:31;;;;;;;7.20;6.50;;;;;;;10.61;77.60;99769.42;213479;1276;140645;-64
2022/10/03 18:47:46;;;;;;;9.30;5.50;;;;;;;10.62;77.61;99770.67;214060;1276;140722;-65
2022/10/03 18:52:52;;;;;;;7.60;5.40;;;;;;;10.63;78.03;99778.90;214128;1276;140283;-66
2022/10/03 18:58:19;;;;;;;24.80;14.70;;;;;;;10.65;78.20;99774.84;213538;1276;139731;-66
2022/10/03 19:03:34;;;;;;;8.00;4.30;;;;;;;10.66;78.26;99780.96;213164;1274;140574;-66
2022/10/03 19:08:49;;;;;;;23.30;14.40;;;;;;;10.71;78.45;99786.52;213444;1276;140587;-66
2022/10/03 19:13:54;;;;;;;11.50;6.70;;;;;;;10.74;78.63;99788.73;213153;1276;140854;-66
2022/10/03 19:19:27;;;;;;;35.80;17.70;;;;;;;10.75;78.60;99790.46;214038;1275;140851;-66
2022/10/03 19:24:35;;;;;;;18.50;7.80;;;;;;;10.76;78.74;99794.74;213771;1275;140021;-65
2022/10/03 19:29:59;;;;;;;32.50;13.80;;;;;;;10.77;78.75;99799.04;214648;1276;140617;-66
2022/10/03 19:35:04;;;;;;;12.00;6.20;;;;;;;10.79;78.81;99795.51;213371;1276;143048;-65
2022/10/03 19:40:34;;;;;;;56.70;20.50;;;;;;;10.85;78.74;99794.25;213680;1277;141500;-65
2022/10/03 19:45:39;;;;;;;30.30;12.20;;;;;;;10.91;79.00;99800.18;214456;1276;140365;-66
2022/10/03 19:50:43;;;;;;;29.00;11.20;;;;;;;10.91;79.13;99806.91;214550;1277;141230;-66
2022/10/03 19:55:46;;;;;;;26.00;11.80;;;;;;;10.89;79.07;99799.93;215687;1276;141195;-67
2022/10/03 20:00:57;;;;;;;3.50;2.00;;;;;;;10.80;78.61;99791.15;215775;1276;140942;-66
2022/10/03 20:06:26;;;;;;;8.40;4.00;;;;;;;10.68;78.15;99789.52;215738;1276;140870;-67
2022/10/03 20:11:31;;;;;;;6.20;4.00;;;;;;;10.57;78.42;99786.02;215770;1276;140538;-66
2022/10/03 20:16:41;;;;;;;20.20;10.20;;;;;;;10.55;78.85;99781.98;215475;1276;140423;-66
2022/10/03 20:21:53;;;;;;;31.10;11.10;;;;;;;10.55;78.98;99784.54;214390;1275;141221;-67
2022/10/03 20:27:01;;;;;;;23.50;15.50;;;;;;;10.53;79.18;99787.63;214889;1275;141044;-65
2022/10/03 20:32:06;;;;;;;25.10;13.50;;;;;;;10.54;79.30;99788.82;214315;1276;140551;-65
2022/10/03 20:37:18;;;;;;;20.50;15.80;;;;;;;10.48;79.39;99786.41;214695;1276;139794;-65
2022/10/03 20:42:28;;;;;;;11.80;6.50;;;;;;;10.41;79.77;99782.42;213875;1275;141089;-64
2022/10/03 20:47:30;;;;;;;8.90;5.30;;;;;;;10.41;80.19;99780.77;214036;1276;142711;-65
2022/10/03 20:52:34;;;;;;;4.50;3.20;;;;;;;10.38;80.28;99781.81;213014;1276;141675;-64
2022/10/03 20:57:37;;;;;;;6.30;3.10;;;;;;;10.31;80.25;99783.04;213347;1276;235111;-64
2022/10/03 21:02:50;;;;;;;12.10;4.10;;;;;;;10.26;80.49;99782.30;213605;1276;140807;-65
2022/10/03 21:08:03;;;;;;;6.20;4.10;;;;;;;10.19;80.62;99787.86;212816;1276;140364;-63
2022/10/03 21:13:17;;;;;;;10.00;4.70;;;;;;;10.12;80.72;99785.85;212947;1276;139681;-65
2022/10/03 21:18:21;;;;;;;9.90;3.50;;;;;;;10.06;81.00;99785.95;213072;1276;140611;-62
2022/10/03 21:23:25;;;;;;;4.60;3.30;;;;;;;10.01;81.02;99789.73;212900;1275;140641;-64
2022/10/03 21:28:33;;;;;;;9.10;2.90;;;;;;;10.00;81.14;99789.15;213794;1276;142415;-65
2022/10/03 21:33:50;;;;;;;7.60;3.50;;;;;;;10.06;81.47;99784.84;213104;1276;143483;-65
2022/10/03 21:38:57;;;;;;;;;;;;;;;10.12;81.58;99790.81;213925;1275;141940;-66
2022/10/03 21:44:03;;;;;;;12.30;3.70;;;;;;;10.08;81.80;99791.30;214992;1276;127303;-67
2022/10/03 21:49:20;;;;;;;7.50;2.10;;;;;;;10.10;81.90;99789.98;213794;1276;140964;-66
2022/10/03 21:54:55;;;;;;;10.40;4.80;;;;;;;10.16;81.96;99788.25;215393;1276;639375;-66
2022/10/03 22:00:06;;;;;;;8.40;2.90;;;;;;;10.18;82.01;99782.80;213835;1276;141961;-65
2022/10/03 22:05:37;;;;;;;10.90;4.10;;;;;;;10.20;82.15;99785.72;215554;1275;140508;-66
2022/10/03 22:10:51;;;;;;;11.10;8.70;;;;;;;10.25;82.32;99783.70;215768;1276;141354;-66
2022/10/03 22:16:02;;;;;;;7.40;2.80;;;;;;;10.33;82.47;99779.11;214696;1276;142409;-65
2022/10/03 22:21:50;;;;;;;13.20;3.80;;;;;;;10.43;82.38;99779.85;214487;1276;141594;-66
2022/10/03 22:27:19;;;;;;;12.60;4.20;;;;;;;10.49;82.26;99775.02;214460;1276;141934;-65
2022/10/03 22:32:29;;;;;;;6.80;3.30;;;;;;;10.51;82.35;99771.98;213357;1276;141835;-64
2022/10/03 22:37:32;;;;;;;4.40;2.60;;;;;;;10.51;82.32;99773.25;214382;1274;140640;-66
2022/10/03 22:42:42;;;;;;;8.50;2.60;;;;;;;10.49;82.34;99766.42;214112;1276;140315;-66
2022/10/03 22:47:51;;;;;;;8.10;2.50;;;;;;;10.49;82.50;99763.23;213584;1276;140309;-65
2022/10/03 22:52:56;;;;;;;5.60;3.10;;;;;;;10.48;82.31;99762.25;213875;1276;141259;-64
2022/10/03 22:58:01;;;;;;;8.50;2.80;;;;;;;10.48;82.71;99761.50;213057;1276;140406;-65
2022/10/03 23:03:14;;;;;;;7.50;3.90;;;;;;;10.51;82.78;99755.82;213041;1276;140692;-65
2022/10/03 23:08:25;;;;;;;6.30;3.30;;;;;;;10.54;82.75;99765.60;213026;1276;141300;-64
2022/10/03 23:13:38;;;;;;;12.90;6.60;;;;;;;10.53;82.81;99765.18;213075;1276;142232;-65
2022/10/03 23:18:51;;;;;;;12.80;3.90;;;;;;;10.46;82.66;99766.36;213340;1276;141240;-64
2022/10/03 23:24:17;;;;;;;7.00;3.90;;;;;;;10.42;82.96;99760.15;213462;1276;142062;-65
2022/10/03 23:29:21;;;;;;;8.90;2.60;;;;;;;10.43;82.90;99762.02;212861;1277;162820;-64
2022/10/03 23:34:36;;;;;;;9.40;3.70;;;;;;;10.45;83.12;99754.20;213875;1277;142077;-65
2022/10/03 23:40:00;;;;;;;7.70;3.10;;;;;;;10.45;83.25;99755.21;213055;1276;140911;-64
2022/10/03 23:45:08;;;;;;;11.60;5.00;;;;;;;10.42;83.11;99756.91;212928;1275;143159;-64
2022/10/03 23:50:21;;;;;;;13.70;3.60;;;;;;;10.41;83.20;99759.43;213566;1275;141649;-64
2022/10/03 23:55:28;;;;;;;11.20;2.90;;;;;;;10.46;83.41;99760.61;213253;1276;141830;-63
